Cincinnati, OH

11:44 PM EDT on August 31, 2016 (GMT -0400)
Newport Aquarium | | Change Station

Elev 499 ft 39.09 °N, 84.50 °W | Updated 1 minute ago

Partly Cloudy
Partly Cloudy
76.5 °F
Feels Like 78 °F
N
0.0
Wind Variable Wind from SSE
Gusts 7.0 mph

Today
High -- | Low -- °F
--% Chance of Precip.
Yesterday
High -- | Low -- °F
Precip. -- in
Pressure 29.96 in
Visibility 8.0 miles
Clouds Few 3800 ft
Heat Index 78 °F
Dew Point 68 °F
Humidity 75%
Rainfall 0.00 in
Snow Depth Not available.
7:06 AM 8:09 PM
Waning Crescent, 0% visible
METAR KLUK 010253Z 00000KT 8SM FEW038 21/21 A2997 RMK AO2 SLP144 T02110211 50008
Pressure 29.96 in
Visibility 8.0 miles
Clouds Few 3800 ft
Heat Index 78 °F
Dew Point 68 °F
Humidity 75%
Rainfall 0.00 in
Snow Depth Not available.
7:06 AM 8:09 PM
Waning Crescent, 0% visible
METAR KLUK 010253Z 00000KT 8SM FEW038 21/21 A2997 RMK AO2 SLP144 T02110211 50008

10-Day Weather Forecast

Almanac

Astronomy

Aug. 31, 2016 Rise Set
Actual Time
Civil Twilight
Nautical Twilight
Astronomical Twilight
Moon
Length of Visible Light
Length of Day
Tomorrow will be .
, % of the Moon is Illuminated

Today's Extremes

State Highs State Lows

Community

WunderPhotos

Upload Photos

1,936,291 photos uploaded!

WunderBlog® & News

Nearby

Air Quality

  Air Quality AQ Index Pollutant
Not available.

Snow Depth

Station Depth Elevation

Earthquake Activity

City Distance Mag. Time & Date
Minimum magnitude displayed is 2.5.

Coastal Water Temperatures

Place Temperature

Stations

Nearby Weather Stations

Station Location Temp. Windchill Dew Point Humidity Wind Precip. Elev Updated Type
                   

Watches & Warnings

There are currently no watches in effect.